WetterOnline ( http://www.wetteronline.de )

Wetter aktuell Büren

Aktuelles Wetter: Bad Lippspringe (158m)

6-stündlich | Neueste Meldungen
Ortszeit Temperatur Wetter
Fr, 27.04. 2:00 4.2° C wolkig
Do, 26.04. 20:00 9.7° C wolkig
Do, 26.04. 14:00 10.8° C bewölkt
Do, 26.04. 8:00 5.5° C Regen
Do, 26.04. 2:00 7.9° C bedeckt
Mi, 25.04. 20:00 11.7° C bewölkt
Mi, 25.04. 14:00 12.7° C bedeckt
Mi, 25.04. 8:00 14.4° C bedeckt
Ortszeit Temperatur Wetter
Fr, 27.04. 2:30 4.1° C bewölkt
Fr, 27.04. 2:10 3.9° C wolkig
Fr, 27.04. 2:00 4.2° C wolkig
Fr, 27.04. 1:40 4.5° C wolkig
Fr, 27.04. 1:30 4.8° C wolkig
Fr, 27.04. 1:20 4.8° C wolkig
Fr, 27.04. 1:00 5.5° C wolkig
Fr, 27.04. 0:30 6.3° C wolkig
Fr, 27.04. 0:00 6.6° C wolkig
Do, 26.04. 23:30 7.2° C bewölkt
Ortszeit Relative Feuchte Sichtweite
Fr, 27.04. 2:00 94% 11 km
Do, 26.04. 20:00 77% 30 km
Do, 26.04. 14:00 75% 30 km
Do, 26.04. 8:00 93% 3.3 km
Do, 26.04. 2:00 92% 7 km
Mi, 25.04. 20:00 65% 35 km
Mi, 25.04. 14:00 64% 40 km
Mi, 25.04. 8:00 72% 17 km
Ortszeit Relative Feuchte Sichtweite
Fr, 27.04. 2:30 97% 12 km
Fr, 27.04. 2:10 95% -
Fr, 27.04. 2:00 94% 11 km
Fr, 27.04. 1:40 95% -
Fr, 27.04. 1:30 94% 10 km
Fr, 27.04. 1:20 94% -
Fr, 27.04. 1:00 88% 21 km
Fr, 27.04. 0:30 83% 22 km
Fr, 27.04. 0:00 83% 22 km
Do, 26.04. 23:30 85% 16 km
Ortszeit Niederschlagsmenge Niederschlagsart
Fr, 27.04. 2:00 0.0 l/m2 in 6 Std. -
Do, 26.04. 20:00 1 l/m2 in 12 Std. Regen
Do, 26.04. 14:00 1 l/m2 in 6 Std. Regen
Do, 26.04. 8:00 4 l/m2 in 12 Std. Regen
Do, 26.04. 2:00 2 l/m2 in 6 Std. Regen
Mi, 25.04. 20:00 0.5 l/m2 in 12 Std. Regen
Mi, 25.04. 14:00 0.5 l/m2 in 6 Std. Regen
Mi, 25.04. 8:00 0.1 l/m2 in 12 Std. Sprühregen
Ortszeit Niederschlagsmenge Niederschlagsart
Fr, 27.04. 2:30 0.0 l/m2 in 1 Std. -
Fr, 27.04. 2:10 keine Meldung -
Fr, 27.04. 2:00 0.0 l/m2 in 1 Std. -
Fr, 27.04. 1:40 keine Meldung -
Fr, 27.04. 1:30 0.0 l/m2 in 1 Std. -
Fr, 27.04. 1:20 keine Meldung -
Fr, 27.04. 1:00 0.0 l/m2 in 1 Std. -
Fr, 27.04. 0:30 0.0 l/m2 in 1 Std. -
Fr, 27.04. 0:00 0.0 l/m2 in 1 Std. -
Do, 26.04. 23:30 0.0 l/m2 in 1 Std. -
Ortszeit Stärke Spitze Richtung
km/h Bft. km/h Grad Sektor
Fr, 27.04. 2:00 4 1 25 60° NO
Do, 26.04. 20:00 11 2 52 210° SW
Do, 26.04. 14:00 18 3 47 250° W
Do, 26.04. 8:00 18 3 50 250° W
Do, 26.04. 2:00 6 1 37 180° S
Mi, 25.04. 20:00 9 2 52 270° W
Mi, 25.04. 14:00 22 4 61 270° W
Mi, 25.04. 8:00 25 4 43 230° SW
Ortszeit Stärke Spitze Richtung
km/h Bft. km/h Grad Sektor
Fr, 27.04. 2:30 4 1 7 120° SO
Fr, 27.04. 2:10 4 1 - 40° NO
Fr, 27.04. 2:00 4 1 4 60° NO
Fr, 27.04. 1:40 4 1 - 150° SO
Fr, 27.04. 1:30 2 1 6 140° SO
Fr, 27.04. 1:20 2 1 - 140° SO
Fr, 27.04. 1:00 4 1 11 170° S
Fr, 27.04. 0:30 4 1 11 180° S
Fr, 27.04. 0:00 4 1 11 160° S
Do, 26.04. 23:30 4 1 11 170° S
Ortszeit Untergrenze Bedeckung Gattung
total tief tief mittel hoch
Fr, 27.04. 2:00 8100 m 8/8 0/8 - - -
Do, 26.04. 20:00 1800 m 5/8 4/8 - - -
Do, 26.04. 14:00 990 m 7/8 7/8 - - -
Do, 26.04. 8:00 510 m 8/8 8/8 - - -
Do, 26.04. 2:00 1170 m 8/8 8/8 - - -
Mi, 25.04. 20:00 1500 m 7/8 7/8 - - -
Mi, 25.04. 14:00 1050 m 8/8 8/8 - - -
Mi, 25.04. 8:00 810 m 8/8 8/8 - - -
Ortszeit Bedeckungsgrad in Achtel und Wolkenuntergrenze
Fr, 27.04. 2:30 6(1500m) 7(8700m) 8(9000m)
Fr, 27.04. 2:10 3(1500m) 6(8700m) 8(9000m)
Fr, 27.04. 2:00 3(8100m) 7(8700m) 8(9000m)
Fr, 27.04. 1:40 2(7200m) 8(8700m) 8(9000m)
Fr, 27.04. 1:30 7(7200m) 8(8100m) 8(8700m)
Fr, 27.04. 1:20 7(7200m) 8(8100m)
Fr, 27.04. 1:00 8(7800m) 8(7800m)
Fr, 27.04. 0:30 8(8100m)
Fr, 27.04. 0:00 1(1440m) 3(1500m) 8(8100m)
Do, 26.04. 23:30 6(1500m) 8(7800m) 8(9000m)
Ortszeit Luftdruck NN (hPa) Tendenz (hPa in 3 Std.)
Fr, 27.04. 2:00 1018 + 0,1
Do, 26.04. 20:00 1016 + 0,2
Do, 26.04. 14:00 1016 + 0,6
Do, 26.04. 8:00 1014 + 1,4
Do, 26.04. 2:00 1013 + 0,1
Mi, 25.04. 20:00 1011 + 0,2
Mi, 25.04. 14:00 1011 + 2,1
Mi, 25.04. 8:00 1007 - 0,2
Ortszeit Luftdruck NN (hPa) Tendenz (hPa in 3 Std.)
Fr, 27.04. 2:30 1018 - 0,2
Fr, 27.04. 2:10 1018 keine Meldung
Fr, 27.04. 2:00 1018 + 0,1
Fr, 27.04. 1:40 1018 keine Meldung
Fr, 27.04. 1:30 1018 - 0,1
Fr, 27.04. 1:20 1018 keine Meldung
Fr, 27.04. 1:00 1018 - 0,2
Fr, 27.04. 0:30 1018 + 0,2
Fr, 27.04. 0:00 1018 + 0,4
Do, 26.04. 23:30 1018 + 0,8
Ortszeit Schneehöhe (cm)
Fr, 27.04. 2:00 0
Do, 26.04. 20:00 0
Do, 26.04. 14:00 0
Do, 26.04. 8:00 0
Do, 26.04. 2:00 0
Mi, 25.04. 20:00 0
Mi, 25.04. 14:00 0
Mi, 25.04. 8:00 0
Ortszeit Schneehöhe (cm)
Fr, 27.04. 2:30 0
Fr, 27.04. 2:10 0
Fr, 27.04. 2:00 0
Fr, 27.04. 1:40 0
Fr, 27.04. 1:30 0
Fr, 27.04. 1:20 0
Fr, 27.04. 1:00 0
Fr, 27.04. 0:30 0
Fr, 27.04. 0:00 0
Do, 26.04. 23:30 0
Link zu dieser Seite / Seite empfehlen

Das Wetter in ...